createdAt,value
2018-12-17T00:02:27.941Z,24.60
2018-12-17T00:05:02.254Z,24.57
2018-12-17T00:07:36.652Z,24.73
2018-12-17T00:10:12.013Z,24.00
2018-12-17T00:12:46.342Z,24.30
2018-12-17T00:15:20.659Z,24.63
2018-12-17T00:17:54.997Z,24.63
2018-12-17T00:20:29.303Z,26.77
2018-12-17T00:23:03.648Z,26.97
2018-12-17T00:25:37.896Z,25.93
2018-12-17T00:28:12.284Z,27.57
2018-12-17T00:30:46.604Z,24.13
2018-12-17T00:33:20.952Z,24.53
2018-12-17T00:35:55.291Z,25.10
2018-12-17T00:38:29.594Z,28.00
2018-12-17T00:41:03.916Z,27.13
2018-12-17T00:43:38.496Z,27.50
2018-12-17T00:46:12.792Z,24.80
2018-12-17T00:48:47.277Z,24.60
2018-12-17T00:51:21.812Z,25.13
2018-12-17T00:53:56.221Z,27.67
2018-12-17T00:56:30.527Z,29.07
2018-12-17T00:59:04.858Z,27.00
2018-12-17T01:01:39.344Z,25.90
2018-12-17T01:04:13.691Z,27.80
2018-12-17T01:06:48.168Z,26.17
2018-12-17T01:09:22.452Z,26.93
2018-12-17T01:11:56.848Z,25.90
2018-12-17T01:14:31.242Z,25.87
2018-12-17T01:17:05.601Z,26.70
2018-12-17T01:19:39.944Z,27.33
2018-12-17T01:22:14.307Z,26.13
2018-12-17T01:24:48.609Z,24.10
2018-12-17T01:27:22.888Z,27.27
2018-12-17T01:29:57.263Z,26.33
2018-12-17T01:32:31.599Z,25.17
2018-12-17T01:35:06.134Z,24.83
2018-12-17T01:37:47.143Z,25.50
2018-12-17T01:40:21.469Z,27.53
2018-12-17T01:42:55.807Z,27.07
2018-12-17T01:45:30.125Z,26.23
2018-12-17T01:48:04.536Z,25.07
2018-12-17T01:50:38.864Z,25.63
2018-12-17T01:53:13.143Z,27.07
2018-12-17T01:55:47.501Z,29.13
2018-12-17T01:58:21.779Z,27.03
2018-12-17T02:00:56.055Z,28.70
2018-12-17T02:03:30.410Z,27.93
2018-12-17T02:06:04.737Z,25.13
2018-12-17T02:08:39.281Z,28.97
2018-12-17T02:11:13.589Z,31.07
2018-12-17T02:13:47.936Z,27.90
2018-12-17T02:16:22.294Z,27.73
2018-12-17T02:18:56.723Z,26.77
2018-12-17T02:21:31.095Z,26.80
2018-12-17T02:24:05.453Z,29.50
2018-12-17T02:26:39.778Z,26.33
2018-12-17T02:29:14.110Z,26.77
2018-12-17T02:31:48.459Z,27.70
2018-12-17T02:34:22.807Z,28.00
2018-12-17T02:36:57.149Z,27.93
2018-12-17T02:39:31.467Z,28.13
2018-12-17T02:42:05.806Z,26.87
2018-12-17T02:44:40.635Z,28.83
2018-12-17T02:47:14.947Z,27.73
2018-12-17T02:49:49.243Z,27.40
2018-12-17T02:52:23.556Z,27.43
2018-12-17T02:54:57.925Z,26.50
2018-12-17T02:57:32.530Z,28.00
2018-12-17T03:00:07.768Z,28.83
2018-12-17T03:02:42.087Z,28.87
2018-12-17T03:05:16.388Z,29.13
2018-12-17T03:07:50.702Z,28.37
2018-12-17T03:10:25.017Z,28.37
2018-12-17T03:12:59.466Z,28.13
2018-12-17T03:15:33.777Z,28.03
2018-12-17T03:18:08.096Z,27.33
2018-12-17T03:20:42.418Z,28.47
2018-12-17T03:23:16.732Z,28.53
2018-12-17T03:25:51.019Z,28.73
2018-12-17T03:28:25.352Z,28.40
2018-12-17T03:30:59.675Z,27.77
2018-12-17T03:33:34.099Z,28.43
2018-12-17T03:36:08.400Z,30.13
2018-12-17T03:38:42.749Z,29.73
2018-12-17T03:41:17.149Z,30.03
2018-12-17T03:43:51.470Z,28.83
2018-12-17T03:46:25.772Z,28.73
2018-12-17T03:49:00.186Z,25.73
2018-12-17T03:51:34.449Z,25.87
2018-12-17T03:54:08.815Z,26.67
2018-12-17T03:56:43.123Z,26.77
2018-12-17T03:59:17.467Z,25.40
2018-12-17T04:01:51.897Z,30.10
2018-12-17T04:04:26.249Z,28.20
2018-12-17T04:07:00.614Z,26.80
2018-12-17T04:09:35.032Z,27.47
2018-12-17T04:12:09.372Z,26.93
2018-12-17T04:14:43.784Z,26.50
2018-12-17T04:17:18.088Z,27.30
2018-12-17T04:19:52.395Z,28.33
2018-12-17T04:22:26.687Z,25.23
2018-12-17T04:25:01.052Z,28.23
2018-12-17T04:27:35.349Z,26.90
2018-12-17T04:30:09.725Z,26.03
2018-12-17T04:32:44.003Z,27.67
2018-12-17T04:35:18.372Z,26.47
2018-12-17T04:37:52.676Z,28.07
2018-12-17T04:40:27.021Z,28.65
2018-12-17T04:43:01.308Z,27.43
2018-12-17T04:45:35.637Z,27.07
2018-12-17T04:48:09.949Z,29.17
2018-12-17T04:50:44.252Z,28.13
2018-12-17T04:53:18.571Z,27.40
2018-12-17T04:55:52.901Z,28.53
2018-12-17T04:58:27.213Z,25.30
2018-12-17T05:01:01.580Z,25.00
2018-12-17T05:03:36.008Z,25.80
2018-12-17T05:06:10.497Z,24.87
2018-12-17T05:08:44.976Z,26.50
2018-12-17T05:11:19.291Z,26.83
2018-12-17T05:13:53.641Z,25.30
2018-12-17T05:16:27.966Z,25.60
2018-12-17T05:19:02.292Z,26.63
2018-12-17T05:21:36.603Z,27.93
2018-12-17T05:24:11.001Z,28.27
2018-12-17T05:26:45.333Z,24.17
2018-12-17T05:29:21.623Z,26.10
2018-12-17T05:31:56.160Z,25.43
2018-12-17T05:34:30.463Z,25.47
2018-12-17T05:37:04.773Z,24.93
2018-12-17T05:39:39.087Z,25.63
2018-12-17T05:42:13.422Z,26.13
2018-12-17T05:44:47.860Z,26.60
2018-12-17T05:47:22.111Z,27.13
2018-12-17T05:49:56.468Z,26.63
2018-12-17T05:52:30.823Z,27.10
2018-12-17T05:55:06.129Z,28.27
2018-12-17T05:57:40.568Z,25.30
2018-12-17T06:00:14.879Z,25.90
2018-12-17T06:02:49.311Z,23.97
2018-12-17T06:05:23.659Z,25.47
2018-12-17T06:07:59.661Z,26.47
2018-12-17T06:10:36.553Z,24.67
2018-12-17T06:13:10.931Z,24.97
2018-12-17T06:15:45.280Z,24.93
2018-12-17T06:18:19.567Z,25.33
2018-12-17T06:20:54.082Z,26.53
2018-12-17T06:23:28.503Z,23.17
2018-12-17T06:26:02.809Z,23.80
2018-12-17T06:28:37.153Z,23.20
2018-12-17T06:31:11.427Z,24.50
2018-12-17T06:33:45.764Z,23.87
2018-12-17T06:36:20.159Z,23.97
2018-12-17T06:38:54.448Z,23.10
2018-12-17T06:41:28.790Z,25.23
2018-12-17T06:44:03.108Z,22.93
2018-12-17T06:46:37.416Z,23.37
2018-12-17T06:49:12.007Z,21.67
2018-12-17T06:51:46.607Z,22.47
2018-12-17T06:54:21.776Z,21.27
2018-12-17T06:56:56.081Z,20.00
2018-12-17T06:59:30.512Z,21.03
2018-12-17T07:02:05.728Z,22.50
2018-12-17T07:04:40.043Z,21.50
2018-12-17T07:07:14.412Z,21.10
2018-12-17T07:09:48.850Z,20.37
2018-12-17T07:12:23.277Z,20.93
2018-12-17T07:14:57.644Z,23.47
2018-12-17T07:17:31.969Z,21.17
2018-12-17T07:20:06.763Z,21.00
2018-12-17T07:22:41.064Z,20.97
2018-12-17T07:25:15.432Z,20.47
2018-12-17T07:27:49.670Z,20.27
2018-12-17T07:30:24.044Z,20.93
2018-12-17T07:32:58.432Z,20.57
2018-12-17T07:35:32.764Z,21.13
2018-12-17T07:38:07.047Z,21.23
2018-12-17T07:40:41.379Z,22.33
2018-12-17T07:43:15.906Z,22.00
2018-12-17T07:45:50.378Z,21.17
2018-12-17T07:48:24.731Z,22.30
2018-12-17T07:50:59.084Z,22.27
2018-12-17T07:53:33.420Z,21.30
2018-12-17T07:56:07.713Z,21.53
2018-12-17T07:58:42.021Z,20.80
2018-12-17T08:01:16.375Z,19.43
2018-12-17T08:03:50.650Z,20.70
2018-12-17T08:06:25.033Z,20.83
2018-12-17T08:08:59.391Z,19.70
2018-12-17T08:11:33.721Z,20.43
2018-12-17T08:14:08.024Z,21.57
2018-12-17T08:16:42.307Z,18.77
2018-12-17T08:19:16.639Z,19.43
2018-12-17T08:21:50.996Z,18.17
2018-12-17T08:24:25.315Z,19.50
2018-12-17T08:26:59.737Z,20.33
2018-12-17T08:29:34.009Z,19.67
2018-12-17T08:32:08.380Z,20.90
2018-12-17T08:34:42.642Z,19.33
2018-12-17T08:37:17.509Z,21.30
2018-12-17T08:39:51.792Z,19.37
2018-12-17T08:42:26.071Z,20.23
2018-12-17T08:45:00.347Z,20.93
2018-12-17T08:47:34.659Z,19.60
2018-12-17T08:50:09.177Z,20.13
2018-12-17T08:52:43.460Z,20.90
2018-12-17T08:55:18.138Z,19.73
2018-12-17T08:57:52.755Z,21.10
2018-12-17T09:00:28.310Z,21.17
2018-12-17T09:03:03.276Z,21.63
2018-12-17T09:05:37.907Z,21.93
2018-12-17T09:08:16.952Z,20.10
2018-12-17T09:10:51.968Z,20.23
2018-12-17T09:13:26.318Z,21.27
2018-12-17T09:16:03.842Z,22.50
2018-12-17T09:18:38.299Z,20.47
2018-12-17T09:21:12.794Z,20.10
2018-12-17T09:23:47.284Z,20.03
2018-12-17T09:26:26.763Z,20.90
2018-12-17T09:29:21.682Z,21.50
2018-12-17T09:32:04.095Z,21.47
2018-12-17T09:34:44.948Z,22.13
2018-12-17T09:37:23.109Z,22.17
2018-12-17T09:39:58.927Z,22.00
2018-12-17T09:42:33.754Z,20.83
2018-12-17T09:45:09.766Z,22.13
2018-12-17T09:47:45.095Z,22.93
2018-12-17T09:50:19.541Z,23.90
2018-12-17T09:52:54.245Z,22.93
2018-12-17T09:59:07.825Z,24.17
2018-12-17T10:01:43.280Z,23.47
2018-12-17T10:04:21.596Z,25.70
2018-12-17T10:07:02.047Z,29.10
2018-12-17T10:09:51.869Z,24.63
2018-12-17T10:12:46.289Z,22.43
2018-12-17T10:21:04.675Z,27.47
2018-12-17T10:23:48.207Z,25.33
2018-12-17T10:34:19.858Z,26.20
2018-12-17T10:36:58.243Z,28.13
2018-12-17T10:39:42.342Z,26.10
2018-12-17T10:42:19.166Z,25.27
2018-12-17T10:44:56.830Z,24.97
2018-12-17T10:47:32.342Z,27.40
2018-12-17T10:50:08.786Z,23.47
2018-12-17T10:52:49.335Z,23.60
2018-12-17T10:55:24.250Z,25.90
2018-12-17T10:57:58.830Z,31.97
2018-12-17T11:00:39.516Z,27.80
2018-12-17T11:03:25.453Z,26.17
2018-12-17T11:06:08.480Z,23.13
2018-12-17T11:08:42.762Z,23.63
2018-12-17T11:11:17.109Z,24.67
2018-12-17T11:13:51.393Z,25.73
2018-12-17T11:16:27.022Z,24.23
2018-12-17T11:19:01.289Z,25.03
2018-12-17T11:21:36.261Z,24.77
2018-12-17T11:24:10.633Z,23.27
2018-12-17T11:26:46.647Z,24.87
2018-12-17T11:29:35.234Z,24.27
2018-12-17T11:32:35.881Z,24.63
2018-12-17T11:35:17.191Z,22.27
2018-12-17T11:37:51.475Z,25.27
2018-12-17T11:40:26.705Z,23.97
2018-12-17T11:43:01.927Z,25.20
2018-12-17T11:45:36.209Z,24.07
2018-12-17T11:49:01.649Z,22.93
2018-12-17T11:51:44.896Z,25.33
2018-12-17T11:54:27.294Z,25.10
2018-12-17T11:59:17.038Z,23.27
2018-12-17T12:01:58.356Z,22.47
2018-12-17T12:04:32.630Z,24.73
2018-12-17T12:07:07.164Z,23.03
2018-12-17T12:09:46.679Z,22.97
2018-12-17T12:12:39.259Z,25.23
2018-12-17T12:15:14.916Z,25.63
2018-12-17T12:20:54.182Z,25.03
2018-12-17T12:23:31.033Z,25.83
2018-12-17T12:26:25.451Z,24.00
2018-12-17T12:29:19.547Z,25.70
2018-12-17T12:32:04.302Z,24.83
2018-12-17T12:34:38.600Z,25.30
2018-12-17T12:37:13.567Z,24.30
2018-12-17T12:39:59.786Z,24.30
2018-12-17T12:45:39.481Z,25.37
2018-12-17T12:48:15.246Z,27.10
2018-12-17T12:50:51.424Z,24.40
2018-12-17T12:53:33.527Z,25.23
2018-12-17T12:56:13.018Z,24.27
2018-12-17T12:58:49.872Z,23.80
2018-12-17T13:04:32.272Z,24.57
2018-12-17T13:07:07.128Z,24.33
2018-12-17T13:09:41.755Z,23.80
2018-12-17T13:12:16.692Z,23.27
2018-12-17T13:14:51.207Z,24.33
2018-12-17T13:17:40.453Z,23.40
2018-12-17T13:20:18.687Z,22.03
2018-12-17T13:23:02.412Z,23.00
2018-12-17T13:25:50.690Z,22.67
2018-12-17T13:28:40.538Z,23.00
2018-12-17T13:31:15.685Z,22.07
2018-12-17T13:33:51.209Z,23.60
2018-12-17T13:36:26.093Z,23.60
2018-12-17T13:39:02.420Z,26.50
2018-12-17T13:41:36.917Z,24.63
2018-12-17T13:44:13.153Z,28.27
2018-12-17T13:46:48.125Z,24.40
2018-12-17T13:49:22.408Z,23.17
2018-12-17T13:52:02.168Z,24.73
